createdAt,value
2019-02-06T19:07:31.167Z,21.53
2019-02-06T19:10:00.375Z,21.43
2019-02-06T19:12:29.758Z,21.47
2019-02-06T19:14:59.097Z,21.54
2019-02-06T19:17:28.206Z,21.55
2019-02-06T19:19:57.553Z,21.55
2019-02-06T19:22:26.946Z,21.69
2019-02-06T19:24:56.535Z,21.49
2019-02-06T19:27:26.004Z,21.53
2019-02-06T19:29:55.356Z,21.55
2019-02-06T19:32:24.578Z,21.44
2019-02-06T19:34:54.018Z,21.39
2019-02-06T19:37:23.142Z,21.36
2019-02-06T19:39:52.638Z,21.35
2019-02-06T19:42:21.834Z,21.32
2019-02-06T19:44:50.951Z,21.30
2019-02-06T19:47:20.465Z,21.30
2019-02-06T19:49:49.699Z,21.30
2019-02-06T19:52:18.894Z,21.27
2019-02-06T19:54:49.103Z,21.26
2019-02-06T19:57:18.539Z,21.25
2019-02-06T19:59:47.683Z,21.23
2019-02-06T20:02:16.804Z,21.23
2019-02-06T20:04:46.019Z,21.21
2019-02-06T20:07:15.561Z,21.19
2019-02-06T20:09:44.778Z,21.18
2019-02-06T20:12:14.015Z,21.17
2019-02-06T20:14:43.414Z,21.16
2019-02-06T20:17:12.664Z,21.19
2019-02-06T20:19:41.780Z,21.21
2019-02-06T20:22:10.974Z,21.21
2019-02-06T20:24:40.136Z,21.22
2019-02-06T20:27:09.374Z,21.24
2019-02-06T20:29:38.490Z,21.29
2019-02-06T20:32:08.149Z,21.31
2019-02-06T20:34:37.277Z,21.30
2019-02-06T20:37:06.614Z,21.31
2019-02-06T20:39:35.963Z,21.34
2019-02-06T20:42:05.078Z,21.46
2019-02-06T20:44:34.543Z,21.43
2019-02-06T20:47:03.659Z,21.34
2019-02-06T20:49:33.232Z,21.30
2019-02-06T20:52:02.345Z,21.26
2019-02-06T20:54:31.537Z,21.27
2019-02-06T20:57:11.870Z,21.25
2019-02-06T20:59:32.909Z,21.23
2019-02-06T21:02:02.032Z,21.24
2019-02-06T21:04:31.403Z,21.21
2019-02-06T21:07:00.519Z,21.20
2019-02-06T21:09:29.938Z,21.22
2019-02-06T21:11:59.085Z,21.22
2019-02-06T21:14:28.432Z,21.23
2019-02-06T21:16:57.550Z,21.21
2019-02-06T21:19:28.214Z,21.24
2019-02-06T21:21:57.414Z,21.24
2019-02-06T21:24:26.534Z,21.29
2019-02-06T21:26:55.687Z,21.31
2019-02-06T21:29:24.801Z,21.34
2019-02-06T21:31:53.916Z,21.37
2019-02-06T21:34:23.032Z,21.41
2019-02-06T21:36:52.489Z,21.41
2019-02-06T21:39:21.600Z,21.42
2019-02-06T21:41:50.735Z,21.38
2019-02-06T21:44:20.149Z,21.36
2019-02-06T21:46:49.552Z,21.37
2019-02-06T21:49:18.662Z,21.36
2019-02-06T21:51:48.182Z,21.35
2019-02-06T21:54:17.311Z,21.34
2019-02-06T21:56:46.853Z,21.34
2019-02-06T21:59:15.971Z,21.35
2019-02-06T22:01:45.108Z,21.33
2019-02-06T22:04:14.226Z,21.30
2019-02-06T22:06:43.893Z,21.31
2019-02-06T22:09:13.344Z,21.30
2019-02-06T22:11:42.761Z,21.33
2019-02-06T22:14:11.895Z,21.29
2019-02-06T22:16:42.082Z,21.30
2019-02-06T22:19:11.298Z,21.33
2019-02-06T22:21:40.915Z,21.36
2019-02-06T22:24:10.141Z,21.40
2019-02-06T22:26:39.502Z,21.43
2019-02-06T22:29:08.676Z,21.45
2019-02-06T22:31:38.086Z,21.48
2019-02-06T22:34:07.206Z,21.49
2019-02-06T22:36:36.513Z,21.53
2019-02-06T22:39:09.167Z,21.54
2019-02-06T22:41:38.595Z,21.66
2019-02-06T22:44:07.741Z,22.08
2019-02-06T22:46:37.190Z,22.13
2019-02-06T22:49:07.599Z,21.96
2019-02-06T22:51:36.717Z,21.74
2019-02-06T22:54:05.844Z,21.59
2019-02-06T22:56:34.961Z,21.54
2019-02-06T22:59:04.116Z,21.52
2019-02-06T23:01:34.779Z,21.49
2019-02-06T23:04:04.185Z,21.43
2019-02-06T23:06:33.337Z,21.40
2019-02-06T23:09:05.020Z,21.40
2019-02-06T23:11:34.936Z,21.32
2019-02-06T23:14:04.126Z,21.33
2019-02-06T23:16:34.352Z,21.29
2019-02-06T23:19:03.746Z,21.26
2019-02-06T23:21:32.857Z,21.26
2019-02-06T23:24:02.023Z,21.26
2019-02-06T23:26:31.140Z,21.22
2019-02-06T23:29:00.314Z,21.18
2019-02-06T23:31:29.507Z,21.16
2019-02-06T23:33:58.789Z,21.15
2019-02-06T23:36:27.889Z,21.13
2019-02-06T23:38:57.014Z,21.09
2019-02-06T23:41:26.126Z,21.05
2019-02-06T23:43:55.261Z,21.05
2019-02-06T23:46:24.718Z,21.04
2019-02-06T23:48:53.951Z,21.03
2019-02-06T23:51:23.069Z,21.02
2019-02-06T23:53:52.196Z,20.99
2019-02-06T23:56:21.612Z,20.99
2019-02-06T23:58:51.044Z,20.96
